Terminal Aerodrome Forecast
Issued by NWS Omaha/Valley, NE

Home | Current Version | Previous Version | Text Only | Print | Product List | Glossary Off
Versions: 1 2 3 4 5 6 7 8 9 10 11 12 13 14 15 16 17 18 19 20 21 22 23 24 25 26 27 28 29 30 31 32 33 34 35

000
FTUS43 KOAX 171120
TAFOFK
TAF
KOFK 171120Z 1712/1812 32016G25KT P6SM OVC035
     FM171400 32018G25KT P6SM BKN035
     FM172200 33015G22KT P6SM SCT040
     FM180000 34007KT P6SM SCT040
     FM180900 34005KT P6SM SKC=

USA.gov is the U.S. government's official web portal to all federal, state and local government web resources and services.